This is the latest recevied weather packets stored in our database for station/object HS1AXC-1. If no packets are shown the sender has not sent any weather packets the latest 1 day(s).
| Time | Temp. | Humidity | Pressure | Rain* | Wind** | Luminosity | Snow |
|---|---|---|---|---|---|---|---|
| 1777989459 | 35° C | 63% | 1009 hPa | - | 0 m/s | 0 W/m² | - |
| 1777988837 | 36.11° C | 60% | 1009 hPa | - | 0 m/s | 0 W/m² | - |
| 1777988215 | 35.56° C | 60% | 1009 hPa | - | 0 m/s | 0 W/m² | - |
| 1777987593 | 36.11° C | 59% | 1009 hPa | - | 0 m/s | 0 W/m² | - |
| 1777986971 | 36.11° C | 59% | 1008 hPa | - | 0 m/s | 0 W/m² | - |
| 1777986349 | 36.67° C | 58% | 1008 hPa | - | 0 m/s | 0 W/m² | - |
| 1777985726 | 36.67° C | 57% | 1008 hPa | - | 0 m/s | 0 W/m² | - |
| 1777985104 | 36.11° C | 58% | 1008 hPa | - | 0 m/s | 0 W/m² | - |
| 1777984482 | 36.67° C | 57% | 1008 hPa | - | 0 m/s | 0 W/m² | - |
| 1777983860 | 36.11° C | 58% | 1008 hPa | - | 0 m/s | 0 W/m² | - |
| 1777983154 | 36.11° C | 58% | 1007 hPa | - | 0 m/s | 0 W/m² | - |
| 1777982532 | 36.67° C | 56% | 1007 hPa | - | 0 m/s | 0 W/m² | - |
| 1777981910 | 36.67° C | 56% | 1007 hPa | - | 0 m/s | 0 W/m² | - |
| 1777981288 | 36.67° C | 55% | 1007 hPa | - | 0 m/s | 0 W/m² | - |
| 1777980666 | 37.22° C | 54% | 1007 hPa | - | 0 m/s | 0 W/m² | - |
| 1777980044 | 37.22° C | 49% | 1007 hPa | - | 0 m/s | 0 W/m² | - |
| 1777979422 | 37.78° C | 46% | 1006 hPa | - | 0 m/s | 0 W/m² | - |
| 1777978800 | 38.33° C | 45% | 1006 hPa | - | 0 m/s | 0 W/m² | - |
| 1777978177 | 37.78° C | 46% | 1006 hPa | - | 0 m/s | 0 W/m² | - |
| 1777977555 | 38.33° C | 46% | 1006 hPa | - | 0 m/s | 0 W/m² | - |
| 1777976933 | 38.33° C | 47% | 1006 hPa | - | 0 m/s | 0 W/m² | - |
| 1777976311 | 38.33° C | 47% | 1006 hPa | - | 0 m/s | 0 W/m² | - |
| 1777975689 | 37.78° C | 47% | 1006 hPa | - | 0 m/s | 0 W/m² | - |
| 1777975067 | 38.33° C | 47% | 1006 hPa | - | 0 m/s | 0 W/m² | - |
| 1777974446 | 38.33° C | 47% | 1006 hPa | - | 0 m/s | 0 W/m² | - |
* Rain since midnight (hover to see other rain measurements)
** Current wind speed in m/s (hover to see current wind gust speed)